createdAt,value
2017-10-01T00:00:23.191Z,10.20
2017-10-01T00:02:51.537Z,8.80
2017-10-01T00:05:19.866Z,11.77
2017-10-01T00:07:48.188Z,10.97
2017-10-01T00:10:16.495Z,10.97
2017-10-01T00:12:45.618Z,12.07
2017-10-01T00:15:13.953Z,10.03
2017-10-01T00:17:42.580Z,11.40
2017-10-01T00:20:10.903Z,11.10
2017-10-01T00:22:39.207Z,12.00
2017-10-01T00:25:08.322Z,11.80
2017-10-01T00:27:37.400Z,11.37
2017-10-01T00:30:05.727Z,12.80
2017-10-01T00:32:34.043Z,12.43
2017-10-01T00:35:02.392Z,13.00
2017-10-01T00:37:30.728Z,11.43
2017-10-01T00:39:59.060Z,13.67
2017-10-01T00:42:27.369Z,11.73
2017-10-01T00:44:56.607Z,13.00
2017-10-01T00:47:24.921Z,14.37
2017-10-01T00:49:53.230Z,13.17
2017-10-01T00:52:22.325Z,13.53
2017-10-01T00:54:51.414Z,13.80
2017-10-01T00:57:19.751Z,15.50
2017-10-01T00:59:48.059Z,15.10
2017-10-01T01:02:16.390Z,14.93
2017-10-01T01:04:44.688Z,16.47
2017-10-01T01:07:13.016Z,13.87
2017-10-01T01:09:42.090Z,15.10
2017-10-01T01:12:10.451Z,14.63
2017-10-01T01:14:39.602Z,16.90
2017-10-01T01:17:07.894Z,15.60
2017-10-01T01:19:36.219Z,17.63
2017-10-01T01:22:05.315Z,15.03
2017-10-01T01:24:33.626Z,15.53
2017-10-01T01:27:01.950Z,16.80
2017-10-01T01:29:30.280Z,16.10
2017-10-01T01:31:58.590Z,16.83
2017-10-01T01:34:26.905Z,16.10
2017-10-01T01:36:55.234Z,17.43
2017-10-01T01:39:23.574Z,17.10
2017-10-01T01:41:51.914Z,15.73
2017-10-01T01:44:20.210Z,16.07
2017-10-01T01:46:49.310Z,17.60
2017-10-01T01:49:18.387Z,15.80
2017-10-01T01:51:47.603Z,17.23
2017-10-01T01:54:16.683Z,15.17
2017-10-01T01:56:45.758Z,17.00
2017-10-01T01:59:14.092Z,15.50
2017-10-01T02:01:42.399Z,16.43
2017-10-01T02:04:10.721Z,15.43
2017-10-01T02:06:39.791Z,14.10
2017-10-01T02:09:08.114Z,15.20
2017-10-01T02:11:36.421Z,14.77
2017-10-01T02:14:04.766Z,15.30
2017-10-01T02:16:33.074Z,15.50
2017-10-01T02:19:01.422Z,15.60
2017-10-01T02:21:29.722Z,14.33
2017-10-01T02:23:58.367Z,13.37
2017-10-01T02:26:27.434Z,14.37
2017-10-01T02:28:55.734Z,13.20
2017-10-01T02:31:24.878Z,14.50
2017-10-01T02:33:53.208Z,13.40
2017-10-01T02:36:21.558Z,13.93
2017-10-01T02:38:49.873Z,13.30
2017-10-01T02:41:18.210Z,14.10
2017-10-01T02:43:46.516Z,13.37
2017-10-01T02:46:15.586Z,13.00
2017-10-01T02:48:44.681Z,14.43
2017-10-01T02:51:13.011Z,12.53
2017-10-01T02:53:41.338Z,12.43
2017-10-01T02:56:10.030Z,14.30
2017-10-01T02:58:39.116Z,14.40
2017-10-01T03:01:08.220Z,13.10
2017-10-01T03:03:37.316Z,13.23
2017-10-01T03:06:05.666Z,12.80
2017-10-01T03:08:33.994Z,14.20
2017-10-01T03:11:02.319Z,13.73
2017-10-01T03:13:31.483Z,13.67
2017-10-01T03:15:59.790Z,14.07
2017-10-01T03:18:28.123Z,15.83
2017-10-01T03:20:56.440Z,13.50
2017-10-01T03:23:24.790Z,15.70
2017-10-01T03:25:53.096Z,14.50
2017-10-01T03:28:21.419Z,14.80
2017-10-01T03:30:50.486Z,15.10
2017-10-01T03:33:19.806Z,15.20
2017-10-01T03:35:48.880Z,14.70
2017-10-01T03:38:17.198Z,14.00
2017-10-01T03:40:47.615Z,13.30
2017-10-01T03:43:16.674Z,16.30
2017-10-01T03:45:45.780Z,15.13
2017-10-01T03:48:14.071Z,14.03
2017-10-01T03:50:43.162Z,11.90
2017-10-01T03:53:12.230Z,15.17
2017-10-01T03:55:40.578Z,14.00
2017-10-01T03:58:08.887Z,13.63
2017-10-01T04:00:38.343Z,14.30
2017-10-01T04:03:06.662Z,11.63
2017-10-01T04:05:34.950Z,12.87
2017-10-01T04:08:04.172Z,11.30
2017-10-01T04:10:33.237Z,12.67
2017-10-01T04:13:01.547Z,11.37
2017-10-01T04:15:29.880Z,11.90
2017-10-01T04:17:58.198Z,13.07
2017-10-01T04:20:26.507Z,12.27
2017-10-01T04:22:54.875Z,11.40
2017-10-01T04:25:23.199Z,10.87
2017-10-01T04:27:51.524Z,11.20
2017-10-01T04:30:19.822Z,11.00
2017-10-01T04:32:48.147Z,11.90
2017-10-01T04:35:17.221Z,12.73
2017-10-01T04:37:45.544Z,11.30
2017-10-01T04:40:13.850Z,11.40
2017-10-01T04:42:42.278Z,11.70
2017-10-01T04:45:10.598Z,11.23
2017-10-01T04:47:38.894Z,11.47
2017-10-01T04:50:07.231Z,11.63
2017-10-01T04:52:35.543Z,11.27
2017-10-01T04:55:03.864Z,13.40
2017-10-01T04:57:32.179Z,10.97
2017-10-01T05:00:00.486Z,10.87
2017-10-01T05:02:29.608Z,13.17
2017-10-01T05:04:58.710Z,11.43
2017-10-01T05:07:27.018Z,12.03
2017-10-01T05:09:55.463Z,12.50
2017-10-01T05:12:23.787Z,12.17
2017-10-01T05:14:52.115Z,12.97
2017-10-01T05:17:20.455Z,12.20
2017-10-01T05:19:48.763Z,11.30
2017-10-01T05:22:17.108Z,14.57
2017-10-01T05:24:45.419Z,12.43
2017-10-01T05:27:13.761Z,13.23
2017-10-01T05:29:42.069Z,12.97
2017-10-01T05:32:11.154Z,13.70
2017-10-01T05:34:40.256Z,14.97
2017-10-01T05:37:09.352Z,14.83
2017-10-01T05:39:37.649Z,15.27
2017-10-01T05:42:05.980Z,14.03
2017-10-01T05:44:34.296Z,15.20
2017-10-01T05:47:02.633Z,14.10
2017-10-01T05:49:30.939Z,15.70
2017-10-01T05:51:59.424Z,14.20
2017-10-01T05:54:27.752Z,14.80
2017-10-01T05:56:56.047Z,15.37
2017-10-01T05:59:24.391Z,15.50
2017-10-01T06:01:52.688Z,15.20
2017-10-01T06:04:21.009Z,15.67
2017-10-01T06:06:49.328Z,16.30
2017-10-01T06:09:17.662Z,16.37
2017-10-01T06:11:46.730Z,18.87
2017-10-01T06:14:15.833Z,15.23
2017-10-01T06:16:44.916Z,15.67
2017-10-01T06:19:13.538Z,15.97
2017-10-01T06:21:42.605Z,14.50
2017-10-01T06:24:11.692Z,14.37
2017-10-01T06:26:40.014Z,14.33
2017-10-01T06:29:08.324Z,14.30
2017-10-01T06:31:36.750Z,13.17
2017-10-01T06:34:05.810Z,13.20
2017-10-01T06:36:34.918Z,13.03
2017-10-01T06:39:04.004Z,13.17
2017-10-01T06:41:32.326Z,14.43
2017-10-01T06:44:00.626Z,14.47
2017-10-01T06:46:28.982Z,13.77
2017-10-01T06:48:57.334Z,14.97
2017-10-01T06:51:25.695Z,15.90
2017-10-01T06:53:54.779Z,14.50
2017-10-01T06:56:23.918Z,15.30
2017-10-01T06:58:52.287Z,14.03
2017-10-01T07:01:21.380Z,12.07
2017-10-01T07:03:49.683Z,12.10
2017-10-01T07:06:18.026Z,13.80
2017-10-01T07:08:46.413Z,13.30
2017-10-01T07:11:15.471Z,12.63
2017-10-01T07:13:43.816Z,13.60
2017-10-01T07:16:12.142Z,14.37
2017-10-01T07:18:40.574Z,14.53
2017-10-01T07:21:08.906Z,13.63
2017-10-01T07:23:37.984Z,12.90
2017-10-01T07:26:06.321Z,12.87
2017-10-01T07:28:34.631Z,12.27
2017-10-01T07:31:02.976Z,12.67
2017-10-01T07:33:31.283Z,14.07
2017-10-01T07:35:59.608Z,12.97
2017-10-01T07:38:27.928Z,13.90
2017-10-01T07:40:56.263Z,13.40
2017-10-01T07:43:24.569Z,12.50
2017-10-01T07:45:52.899Z,13.43
2017-10-01T07:48:21.986Z,14.70
2017-10-01T07:50:50.425Z,15.97
2017-10-01T07:53:18.738Z,12.03
2017-10-01T07:55:47.046Z,12.10
2017-10-01T07:58:15.381Z,13.17
2017-10-01T08:00:43.698Z,12.57
2017-10-01T08:03:12.043Z,12.30
2017-10-01T08:05:40.389Z,14.90
2017-10-01T08:08:08.715Z,12.70
2017-10-01T08:10:37.790Z,11.90
2017-10-01T08:13:06.174Z,13.37
2017-10-01T08:15:35.247Z,12.37
2017-10-01T08:18:03.692Z,14.27
2017-10-01T08:20:31.987Z,14.93
2017-10-01T08:23:00.299Z,11.80
2017-10-01T08:25:28.650Z,13.93
2017-10-01T08:27:56.975Z,15.37
2017-10-01T08:30:26.059Z,15.63
2017-10-01T08:32:54.387Z,14.33
2017-10-01T08:35:22.715Z,16.33
2017-10-01T08:37:51.809Z,14.73
2017-10-01T08:40:20.343Z,12.87
2017-10-01T08:42:48.775Z,13.83
2017-10-01T08:45:17.980Z,13.97
2017-10-01T08:47:46.287Z,12.30
2017-10-01T08:50:14.695Z,12.53
2017-10-01T08:52:43.046Z,13.30
2017-10-01T08:55:11.353Z,12.90
2017-10-01T08:57:39.686Z,14.33
2017-10-01T09:00:08.018Z,11.50
2017-10-01T09:02:36.344Z,13.60
2017-10-01T09:05:04.664Z,11.47
2017-10-01T09:07:33.772Z,12.23
2017-10-01T09:10:02.875Z,12.30
2017-10-01T09:12:32.070Z,12.43
2017-10-01T09:15:01.174Z,10.63
2017-10-01T09:17:30.270Z,12.40
2017-10-01T09:19:59.369Z,11.10
2017-10-01T09:22:27.727Z,11.17
2017-10-01T09:24:56.239Z,12.00
2017-10-01T09:27:24.584Z,10.30
2017-10-01T09:29:52.972Z,10.13
2017-10-01T09:32:21.270Z,10.40
2017-10-01T09:34:49.582Z,10.60
2017-10-01T09:37:17.910Z,10.57
2017-10-01T09:39:46.222Z,12.40
2017-10-01T09:42:14.545Z,11.20
2017-10-01T09:44:43.669Z,9.90
2017-10-01T09:47:11.987Z,9.17
2017-10-01T09:49:40.276Z,9.63
2017-10-01T09:52:08.790Z,9.97
2017-10-01T09:54:37.079Z,8.07
2017-10-01T09:57:05.389Z,10.03
2017-10-01T09:59:33.707Z,7.83
2017-10-01T10:02:02.022Z,8.07
2017-10-01T10:04:30.357Z,8.97
2017-10-01T10:06:59.454Z,9.27
2017-10-01T10:09:27.942Z,7.27
2017-10-01T10:11:56.243Z,7.63
2017-10-01T10:14:24.626Z,6.83
2017-10-01T10:16:53.395Z,8.00
2017-10-01T10:19:21.685Z,6.00
2017-10-01T10:21:50.007Z,8.30
2017-10-01T10:24:18.302Z,7.70
2017-10-01T10:26:47.394Z,7.80
2017-10-01T10:29:15.674Z,5.37
2017-10-01T10:31:44.082Z,5.50
2017-10-01T10:34:12.438Z,6.60
2017-10-01T10:36:41.114Z,7.67
2017-10-01T10:39:10.179Z,6.70
2017-10-01T10:41:38.486Z,7.47
2017-10-01T10:44:07.575Z,6.10
2017-10-01T10:46:35.908Z,7.07
2017-10-01T10:49:04.226Z,6.20
2017-10-01T10:51:32.522Z,5.77
2017-10-01T10:54:01.609Z,5.83
2017-10-01T10:56:29.913Z,6.40
2017-10-01T10:58:58.241Z,6.60
2017-10-01T11:01:26.542Z,7.03
2017-10-01T11:03:54.840Z,6.77
2017-10-01T11:06:23.151Z,5.73
2017-10-01T11:08:51.576Z,6.00
2017-10-01T11:11:20.655Z,7.60
2017-10-01T11:13:49.718Z,7.10
2017-10-01T11:16:18.054Z,6.40
2017-10-01T11:18:46.399Z,6.27
2017-10-01T11:21:15.509Z,6.17
2017-10-01T11:23:43.836Z,6.20
2017-10-01T11:26:12.146Z,5.90
2017-10-01T11:28:40.447Z,5.63
2017-10-01T11:31:08.876Z,6.93
2017-10-01T11:33:37.174Z,8.00
2017-10-01T11:36:06.255Z,7.70
2017-10-01T11:38:34.623Z,8.07
2017-10-01T11:41:02.923Z,6.87
2017-10-01T11:43:31.255Z,7.40
2017-10-01T11:45:59.582Z,7.30
2017-10-01T11:48:27.978Z,7.50
2017-10-01T11:50:56.299Z,6.00
2017-10-01T11:53:24.614Z,7.17
2017-10-01T11:55:53.688Z,6.30
2017-10-01T11:58:22.027Z,5.87
2017-10-01T12:00:51.150Z,7.23
2017-10-01T12:03:19.507Z,7.93
2017-10-01T12:05:47.820Z,6.83
2017-10-01T12:08:16.127Z,8.03
2017-10-01T12:10:45.687Z,8.03
2017-10-01T12:13:13.987Z,6.37
2017-10-01T12:15:43.436Z,9.53
2017-10-01T12:18:11.766Z,6.50
2017-10-01T12:20:40.071Z,7.53
2017-10-01T12:23:09.162Z,7.17
2017-10-01T12:25:38.226Z,8.57
2017-10-01T12:28:06.543Z,9.77
2017-10-01T12:30:35.597Z,24.43
2017-10-01T12:33:03.940Z,30.60
2017-10-01T12:35:32.266Z,7.60
2017-10-01T12:38:00.671Z,9.03
2017-10-01T12:40:28.970Z,5.40
2017-10-01T12:42:57.259Z,6.93
2017-10-01T12:45:25.591Z,11.60
2017-10-01T12:47:53.891Z,8.33
2017-10-01T12:50:22.265Z,5.47
2017-10-01T12:52:50.590Z,6.30
2017-10-01T12:55:19.034Z,4.73
2017-10-01T12:57:47.355Z,4.60
2017-10-01T13:00:21.879Z,6.60
2017-10-01T13:02:50.215Z,4.73
2017-10-01T13:05:18.509Z,6.30
2017-10-01T13:07:46.847Z,7.30
2017-10-01T13:10:15.174Z,10.50
2017-10-01T13:12:43.505Z,7.43
2017-10-01T13:15:11.777Z,7.50
2017-10-01T13:17:40.098Z,7.47
2017-10-01T13:20:08.416Z,5.43
2017-10-01T13:22:37.495Z,8.47
2017-10-01T13:25:06.554Z,7.47
2017-10-01T13:27:34.911Z,7.50
2017-10-01T13:30:03.200Z,7.30
2017-10-01T13:32:31.523Z,6.30
2017-10-01T13:35:00.608Z,7.77
2017-10-01T13:37:28.890Z,9.70
2017-10-01T13:39:57.988Z,6.80
2017-10-01T13:42:26.278Z,6.53
2017-10-01T13:44:54.606Z,8.10
2017-10-01T13:47:22.881Z,9.90
2017-10-01T13:49:51.207Z,9.30
2017-10-01T13:52:19.502Z,8.20
2017-10-01T13:54:47.825Z,8.20
2017-10-01T13:57:16.123Z,8.80
2017-10-01T13:59:45.195Z,9.70
2017-10-01T14:02:13.497Z,9.67
2017-10-01T14:04:42.594Z,8.73
2017-10-01T14:07:11.703Z,13.27
2017-10-01T14:09:40.015Z,8.07
2017-10-01T14:12:08.382Z,10.57
2017-10-01T14:14:36.697Z,9.03
2017-10-01T14:17:05.008Z,10.13
2017-10-01T14:19:33.311Z,8.27
2017-10-01T14:22:01.674Z,10.50
2017-10-01T14:24:29.963Z,7.63
2017-10-01T14:26:58.707Z,8.30
2017-10-01T14:29:27.032Z,10.57
2017-10-01T14:31:55.348Z,9.53
2017-10-01T14:34:23.669Z,6.63
2017-10-01T14:36:51.970Z,6.53
2017-10-01T14:39:20.287Z,8.20
2017-10-01T14:41:48.617Z,8.40
2017-10-01T14:44:16.944Z,6.97
2017-10-01T14:46:46.019Z,8.13
2017-10-01T14:49:14.648Z,8.20
2017-10-01T14:51:42.995Z,6.63
2017-10-01T14:54:12.068Z,7.80
2017-10-01T14:56:40.395Z,7.83
2017-10-01T14:59:08.693Z,6.77
2017-10-01T15:01:37.052Z,6.93
2017-10-01T15:04:05.361Z,6.50
2017-10-01T15:06:33.714Z,6.20
2017-10-01T15:09:02.015Z,5.20
2017-10-01T15:11:30.462Z,5.60
2017-10-01T15:13:58.756Z,6.83
2017-10-01T15:16:27.077Z,6.90
2017-10-01T15:18:55.426Z,6.30
2017-10-01T15:21:23.736Z,6.30
2017-10-01T15:23:52.055Z,6.13
2017-10-01T15:26:20.358Z,5.90
2017-10-01T15:28:49.048Z,6.40
2017-10-01T15:31:17.354Z,5.97
2017-10-01T15:33:46.411Z,5.90
2017-10-01T15:36:14.755Z,6.13
2017-10-01T15:38:43.062Z,5.60
2017-10-01T15:41:11.371Z,6.57
2017-10-01T15:43:40.441Z,5.30
2017-10-01T15:46:08.857Z,6.80
2017-10-01T15:48:37.912Z,6.00
2017-10-01T15:51:06.429Z,7.37
2017-10-01T15:53:35.479Z,6.80
2017-10-01T15:56:03.780Z,6.83
2017-10-01T15:58:32.866Z,6.17
2017-10-01T16:01:01.142Z,6.33
2017-10-01T16:03:29.455Z,7.03
2017-10-01T16:05:57.742Z,8.70
2017-10-01T16:08:26.070Z,6.73
2017-10-01T16:10:54.389Z,7.47
2017-10-01T16:13:22.727Z,9.80
2017-10-01T16:15:51.025Z,6.40
2017-10-01T16:18:19.391Z,7.37
2017-10-01T16:20:47.738Z,6.77
2017-10-01T16:23:16.180Z,7.57
2017-10-01T16:25:44.495Z,5.57
2017-10-01T16:28:12.799Z,7.40
2017-10-01T16:30:41.150Z,8.43
2017-10-01T16:33:09.453Z,7.37
2017-10-01T16:35:37.771Z,7.43
2017-10-01T16:38:06.078Z,6.90
2017-10-01T16:40:34.418Z,7.97
2017-10-01T16:43:02.720Z,8.60
2017-10-01T16:45:31.038Z,11.00
2017-10-01T16:48:00.106Z,8.70
2017-10-01T16:50:28.527Z,7.73
2017-10-01T16:52:57.585Z,8.40
2017-10-01T16:55:26.097Z,8.80
2017-10-01T16:57:55.158Z,9.10
2017-10-01T17:00:23.454Z,9.00
2017-10-01T17:02:52.558Z,9.03
2017-10-01T17:05:21.627Z,10.07
2017-10-01T17:07:49.967Z,10.73
2017-10-01T17:10:18.280Z,7.57
2017-10-01T17:12:47.546Z,10.20
2017-10-01T17:15:15.839Z,14.10
2017-10-01T17:17:44.161Z,13.80
2017-10-01T17:20:13.364Z,12.40
2017-10-01T17:22:42.439Z,13.97
2017-10-01T17:25:11.550Z,14.10
2017-10-01T17:27:39.885Z,15.03
2017-10-01T17:30:08.231Z,13.37
2017-10-01T17:32:36.561Z,12.83
2017-10-01T17:35:04.923Z,12.00
2017-10-01T17:37:34.031Z,13.40
2017-10-01T17:40:02.520Z,12.50
2017-10-01T17:42:30.828Z,12.77
2017-10-01T17:44:59.141Z,10.40
2017-10-01T17:47:27.530Z,9.30
2017-10-01T17:49:55.854Z,10.30
2017-10-01T17:52:24.208Z,9.90
2017-10-01T17:54:53.294Z,8.47
2017-10-01T17:57:22.401Z,9.70
2017-10-01T17:59:50.736Z,7.53
2017-10-01T18:02:19.086Z,8.87
2017-10-01T18:04:47.419Z,7.63
2017-10-01T18:07:15.744Z,6.17
2017-10-01T18:09:44.083Z,7.73
2017-10-01T18:12:12.421Z,6.40
2017-10-01T18:14:40.740Z,7.33
2017-10-01T18:17:09.199Z,7.10
2017-10-01T18:19:38.296Z,6.97
2017-10-01T18:22:07.393Z,7.97
2017-10-01T18:24:36.518Z,7.60
2017-10-01T18:27:04.825Z,7.50
2017-10-01T18:29:33.172Z,6.70
2017-10-01T18:32:01.566Z,7.10
2017-10-01T18:34:29.900Z,5.93
2017-10-01T18:36:59.002Z,7.30
2017-10-01T18:39:27.340Z,8.70
2017-10-01T18:41:55.641Z,8.97
2017-10-01T18:44:24.382Z,10.13
2017-10-01T18:46:52.740Z,8.90
2017-10-01T18:49:21.914Z,7.37
2017-10-01T18:51:50.261Z,7.23
2017-10-01T18:54:18.593Z,7.07
2017-10-01T18:56:47.862Z,7.10
2017-10-01T18:59:16.231Z,5.97
2017-10-01T19:01:46.185Z,7.30
2017-10-01T19:04:14.506Z,7.03
2017-10-01T19:06:42.851Z,7.30
2017-10-01T19:09:11.179Z,6.97
2017-10-01T19:11:40.294Z,8.23
2017-10-01T19:14:08.622Z,8.27
2017-10-01T19:16:37.340Z,5.77
2017-10-01T19:19:05.702Z,6.50
2017-10-01T19:21:34.039Z,10.33
2017-10-01T19:24:02.418Z,6.77
2017-10-01T19:26:30.742Z,6.97
2017-10-01T19:28:59.891Z,6.93
2017-10-01T19:31:28.227Z,7.47
2017-10-01T19:33:57.341Z,7.80
2017-10-01T19:36:26.427Z,6.60
2017-10-01T19:38:55.016Z,7.97
2017-10-01T19:41:23.332Z,5.87
2017-10-01T19:43:51.678Z,6.60
2017-10-01T19:46:20.772Z,6.07
2017-10-01T19:48:50.276Z,5.93
2017-10-01T19:51:18.587Z,6.10
2017-10-01T19:53:46.987Z,7.23
2017-10-01T19:56:15.299Z,7.20
2017-10-01T19:58:44.358Z,7.27
2017-10-01T20:01:12.695Z,6.97
2017-10-01T20:03:41.008Z,21.70
2017-10-01T20:06:09.461Z,7.50
2017-10-01T20:08:37.756Z,7.30
2017-10-01T20:11:06.076Z,6.87
2017-10-01T20:13:34.375Z,7.00
2017-10-01T20:16:03.437Z,6.90
2017-10-01T20:18:32.535Z,7.37
2017-10-01T20:21:00.868Z,7.70
2017-10-01T20:23:29.211Z,7.60
2017-10-01T20:25:57.608Z,8.20
2017-10-01T20:28:26.164Z,9.20
2017-10-01T20:30:54.451Z,8.70
2017-10-01T20:33:22.760Z,7.80
2017-10-01T20:35:51.096Z,7.30
2017-10-01T20:38:19.395Z,7.17
2017-10-01T20:40:47.723Z,6.90
2017-10-01T20:43:16.028Z,8.00
2017-10-01T20:45:44.360Z,8.17
2017-10-01T20:48:12.651Z,7.57
2017-10-01T20:50:40.983Z,21.50
2017-10-01T20:53:09.324Z,6.93
2017-10-01T20:55:37.612Z,8.13
2017-10-01T20:58:06.698Z,8.27
2017-10-01T21:00:35.771Z,8.13
2017-10-01T21:03:04.092Z,9.07
2017-10-01T21:05:33.128Z,16.13
2017-10-01T21:08:01.578Z,8.30
2017-10-01T21:10:29.889Z,7.27
2017-10-01T21:12:58.178Z,9.40
2017-10-01T21:15:26.495Z,7.00
2017-10-01T21:17:54.807Z,8.57
2017-10-01T21:20:23.117Z,7.97
2017-10-01T21:22:52.182Z,9.10
2017-10-01T21:25:20.501Z,7.57
2017-10-01T21:27:49.559Z,8.00
2017-10-01T21:30:17.869Z,8.10
2017-10-01T21:32:46.927Z,8.10
2017-10-01T21:35:15.378Z,7.00
2017-10-01T21:37:43.701Z,7.53
2017-10-01T21:40:12.784Z,6.50
2017-10-01T21:42:41.093Z,6.70
2017-10-01T21:45:09.426Z,8.00
2017-10-01T21:47:37.748Z,7.57
2017-10-01T21:50:06.078Z,7.10
2017-10-01T21:52:34.434Z,6.37
2017-10-01T21:55:02.719Z,5.90
2017-10-01T21:57:31.265Z,6.73
2017-10-01T22:00:00.315Z,6.77
2017-10-01T22:02:28.662Z,7.07
2017-10-01T22:04:57.008Z,7.43
2017-10-01T22:07:25.446Z,8.03
2017-10-01T22:09:53.760Z,7.37
2017-10-01T22:12:22.820Z,8.43
2017-10-01T22:14:51.927Z,8.30
2017-10-01T22:17:20.214Z,7.30
2017-10-01T22:19:49.300Z,7.53
2017-10-01T22:22:17.631Z,10.17
2017-10-01T22:24:45.951Z,7.53
2017-10-01T22:27:14.253Z,7.27
2017-10-01T22:29:43.345Z,8.37
2017-10-01T22:32:12.415Z,9.27
2017-10-01T22:34:40.734Z,8.27
2017-10-01T22:37:09.039Z,8.73
2017-10-01T22:39:37.478Z,9.87
2017-10-01T22:42:06.547Z,10.13
2017-10-01T22:44:34.822Z,7.97
2017-10-01T22:47:03.160Z,9.20
2017-10-01T22:49:31.481Z,8.67
2017-10-01T22:51:59.789Z,9.70
2017-10-01T22:54:28.096Z,8.40
2017-10-01T22:56:56.400Z,7.80
2017-10-01T22:59:24.694Z,9.40
2017-10-01T23:01:53.894Z,8.80
2017-10-01T23:04:22.955Z,8.80
2017-10-01T23:06:51.500Z,8.20
2017-10-01T23:09:19.824Z,7.40
2017-10-01T23:11:48.119Z,8.43
2017-10-01T23:14:16.453Z,7.57
2017-10-01T23:16:44.752Z,8.10
2017-10-01T23:19:13.080Z,8.00
2017-10-01T23:21:41.472Z,9.23
2017-10-01T23:24:09.907Z,8.80
2017-10-01T23:26:38.202Z,10.10
2017-10-01T23:29:06.510Z,8.13
2017-10-01T23:31:34.835Z,8.80
2017-10-01T23:34:03.125Z,7.50
2017-10-01T23:36:31.465Z,7.57
2017-10-01T23:38:59.754Z,7.80
2017-10-01T23:41:28.086Z,8.20
2017-10-01T23:43:56.417Z,8.10
2017-10-01T23:46:25.503Z,7.27
2017-10-01T23:48:53.799Z,7.70
2017-10-01T23:51:22.845Z,7.13
2017-10-01T23:53:51.174Z,7.23
2017-10-01T23:56:19.480Z,8.07
2017-10-01T23:58:47.790Z,7.83
